Главная страница
METAR-TAF:

METAR-TAF

Аэропорты :

New Castle, Пенсильвания, США

широта: 41-01-31N, долгота: 080-24-48W, высота над уровнем моря: 326 м

Текущие метеонаблюдения

Эта сводка был подготовлена 50 минут назад, в 20:56 UTC
Ветер 3 Узел переменных направлений
Температура 32°C
Влажность 46%
Давление 1019 hPa
Видимость: 16.1 км
ясное небо

METAR: KUCP 172056Z AUTO VRB03KT 10SM CLR 32/19 A3008 RMK AO2 SLP191 T03170194 56011

Время: 17:46 (21:46 UTC)


TAF: отсутствует

Метеонаблюдения и прогнозы для более 4000 аэропортов (сводки METAR и TAF).

Имеющиеся станции представлены на карте желтыми и красными точками.

Чтобы увидеть название станции, наведите на нее мышь.

Затем щелкните, чтобы увидеть метеонаблюдения и метеопрогнозы.

Управление картой: чтобы увеличить масштаб, щелкните зеленые кнопки с черным крестиком; чтобы уменьшить масштаб, щелкните зеленую кнопку с тире; для просмотра соседних карт щелкайте зеленые стрелки.


METAR-TAF: